Time;durP1;ratioP1;P1;durP2;ratioP2;P2;SDS_P1;SDS_P2;PMS_P1;PMS_P2;Temp;Humidity;BMP_temperature;BMP_pressure;BME280_temperature;BME280_humidity;BME280_pressure;Samples;Min_cycle;Max_cycle;Signal;HPM_P1;HPM_P2
2022/01/18 00:01:03;;;;;;;35.00;25.95;;;;;;;;;;143740;578;46020;-55
2022/01/18 00:03:30;;;;;;;36.05;26.17;;;;;;;;;;143735;576;46036;-55
2022/01/18 00:05:57;;;;;;;36.50;26.92;;;;;;;;;;143739;669;46020;-55
2022/01/18 00:08:25;;;;;;;40.08;25.40;;;;;;;;;;143741;635;46021;-55
2022/01/18 00:10:51;;;;;;;34.50;24.98;;;;;;;;;;143739;565;46023;-55
2022/01/18 00:16:38;;;;;;;31.87;20.60;;;;;;;;;;143737;602;46023;-56
2022/01/18 00:19:09;;;;;;;20.75;14.93;;;;;;;;;;143740;576;46020;-55
2022/01/18 00:24:26;;;;;;;22.75;16.95;;;;;;;;;;143739;628;46021;-56
2022/01/18 00:26:53;;;;;;;19.42;14.75;;;;;;;;;;143741;570;46020;-55
2022/01/18 00:29:23;;;;;;;15.80;11.60;;;;;;;;;;143738;679;46020;-56
2022/01/18 00:32:06;;;;;;;15.98;11.70;;;;;;;;;;143739;728;46023;-55
2022/01/18 00:34:36;;;;;;;31.08;17.55;;;;;;;;;;143727;589;46918;-55
2022/01/18 00:39:48;;;;;;;22.00;16.50;;;;;;;;;;143739;656;46023;-55
2022/01/18 00:42:15;;;;;;;21.83;13.55;;;;;;;;;;143740;584;46050;-56
2022/01/18 00:44:42;;;;;;;16.55;10.45;;;;;;;;;;143738;583;46010;-56
2022/01/18 00:47:09;;;;;;;13.45;9.70;;;;;;;;;;143735;583;46021;-56
2022/01/18 00:49:42;;;;;;;11.88;8.38;;;;;;;;;;143739;580;46020;-56
2022/01/18 00:52:10;;;;;;;13.90;8.75;;;;;;;;;;143740;579;46022;-56
2022/01/18 00:54:40;;;;;;;11.35;8.20;;;;;;;;;;143738;574;46020;-56
2022/01/18 00:57:08;;;;;;;10.55;7.15;;;;;;;;;;143739;579;46020;-56
2022/01/18 00:59:35;;;;;;;12.07;8.73;;;;;;;;;;143738;647;46020;-56
2022/01/18 01:02:01;;;;;;;19.30;8.48;;;;;;;;;;143740;585;46023;-56
2022/01/18 01:04:33;;;;;;;13.40;8.80;;;;;;;;;;143737;576;47010;-55
2022/01/18 01:07:00;;;;;;;11.93;7.90;;;;;;;;;;143739;597;46020;-55
2022/01/18 01:09:27;;;;;;;10.10;7.32;;;;;;;;;;143738;592;46021;-56
2022/01/18 01:11:54;;;;;;;11.77;7.80;;;;;;;;;;143732;604;47022;-55
2022/01/18 01:14:24;;;;;;;10.80;8.05;;;;;;;;;;143738;564;46011;-55
2022/01/18 01:17:02;;;;;;;11.18;7.95;;;;;;;;;;143742;574;46021;-56
2022/01/18 01:36:41;;;;;;;13.23;7.93;;;;;;;;;;143743;594;45913;-56
2022/01/18 01:42:06;;;;;;;16.33;11.50;;;;;;;;;;143747;574;46022;-56
2022/01/18 01:44:46;;;;;;;16.35;11.82;;;;;;;;;;143739;570;46022;-56
2022/01/18 01:47:18;;;;;;;15.35;11.75;;;;;;;;;;143735;629;47010;-56
2022/01/18 01:49:49;;;;;;;21.80;15.45;;;;;;;;;;143737;575;46020;-55
2022/01/18 01:52:19;;;;;;;23.90;17.02;;;;;;;;;;143739;570;46021;-55
2022/01/18 01:54:46;;;;;;;25.65;17.95;;;;;;;;;;143739;611;46051;-55
2022/01/18 01:57:14;;;;;;;22.17;16.33;;;;;;;;;;143736;569;46010;-55
2022/01/18 01:59:41;;;;;;;26.20;18.37;;;;;;;;;;143738;598;46020;-56
2022/01/18 02:02:08;;;;;;;21.12;16.05;;;;;;;;;;143741;564;46021;-55
2022/01/18 02:04:35;;;;;;;20.05;15.20;;;;;;;;;;143730;589;47020;-55
2022/01/18 02:07:02;;;;;;;24.10;18.58;;;;;;;;;;143735;604;46010;-55
2022/01/18 02:09:29;;;;;;;20.25;15.13;;;;;;;;;;143739;600;46021;-56
2022/01/18 02:11:57;;;;;;;23.65;16.00;;;;;;;;;;143738;638;46020;-56
2022/01/18 02:14:26;;;;;;;24.08;17.77;;;;;;;;;;143740;777;46012;-56
2022/01/18 02:22:24;;;;;;;23.23;19.02;;;;;;;;;;143740;580;46022;-56
2022/01/18 02:24:51;;;;;;;25.67;19.85;;;;;;;;;;143736;599;46023;-56
2022/01/18 02:27:18;;;;;;;25.65;16.90;;;;;;;;;;143735;569;46020;-56
2022/01/18 02:29:45;;;;;;;22.35;15.85;;;;;;;;;;143733;567;46020;-55
2022/01/18 02:32:12;;;;;;;23.35;16.23;;;;;;;;;;143738;665;46020;-56
2022/01/18 02:34:39;;;;;;;18.50;14.40;;;;;;;;;;143738;601;46022;-56
2022/01/18 02:37:07;;;;;;;20.27;14.73;;;;;;;;;;143735;588;46021;-56
2022/01/18 02:39:34;;;;;;;21.55;15.80;;;;;;;;;;143740;599;46020;-55
2022/01/18 02:42:07;;;;;;;23.35;16.52;;;;;;;;;;143740;700;46020;-56
2022/01/18 02:44:35;;;;;;;19.85;14.85;;;;;;;;;;143736;620;46046;-55
2022/01/18 02:47:03;;;;;;;17.73;13.48;;;;;;;;;;143738;619;46010;-56
2022/01/18 02:49:31;;;;;;;22.27;15.85;;;;;;;;;;143740;655;46020;-56
2022/01/18 02:51:59;;;;;;;21.02;15.65;;;;;;;;;;143739;597;46021;-55
2022/01/18 02:54:26;;;;;;;21.73;15.13;;;;;;;;;;143733;581;46023;-55
2022/01/18 02:56:59;;;;;;;22.58;15.23;;;;;;;;;;143738;592;46010;-56
2022/01/18 02:59:48;;;;;;;19.10;15.00;;;;;;;;;;143740;580;46022;-56
2022/01/18 03:05:17;;;;;;;20.75;14.18;;;;;;;;;;143743;576;46020;-56
2022/01/18 03:07:47;;;;;;;21.62;13.57;;;;;;;;;;143735;603;46010;-56
2022/01/18 03:10:15;;;;;;;13.88;10.95;;;;;;;;;;143738;570;46020;-55
2022/01/18 03:12:42;;;;;;;11.30;8.75;;;;;;;;;;143740;565;46020;-55
2022/01/18 03:15:10;;;;;;;17.23;10.18;;;;;;;;;;143739;595;46023;-56
2022/01/18 03:17:37;;;;;;;16.37;12.25;;;;;;;;;;143736;586;47010;-55
2022/01/18 03:20:06;;;;;;;21.33;15.90;;;;;;;;;;143734;568;46020;-56
2022/01/18 03:22:34;;;;;;;23.30;16.33;;;;;;;;;;143740;611;46021;-56
2022/01/18 03:25:13;;;;;;;29.65;19.90;;;;;;;;;;143736;632;47023;-55
2022/01/18 03:30:25;;;;;;;27.20;17.67;;;;;;;;;;143737;573;46021;-55
2022/01/18 03:32:51;;;;;;;28.95;18.85;;;;;;;;;;143738;564;46020;-56
2022/01/18 03:35:18;;;;;;;24.80;19.15;;;;;;;;;;143739;584;46022;-55
2022/01/18 03:37:45;;;;;;;33.83;21.08;;;;;;;;;;143736;575;46011;-56
2022/01/18 03:40:15;;;;;;;32.75;22.90;;;;;;;;;;143737;565;46020;-56
2022/01/18 03:42:44;;;;;;;40.05;26.70;;;;;;;;;;143737;593;46020;-55
2022/01/18 03:45:14;;;;;;;33.75;22.08;;;;;;;;;;143733;573;46023;-55
2022/01/18 03:47:42;;;;;;;28.25;21.52;;;;;;;;;;143731;567;46020;-56
2022/01/18 03:50:11;;;;;;;31.48;23.27;;;;;;;;;;143740;667;46020;-55
2022/01/18 03:52:38;;;;;;;33.20;25.37;;;;;;;;;;143740;602;46021;-55
2022/01/18 03:55:07;;;;;;;35.05;27.30;;;;;;;;;;143734;576;47022;-55
2022/01/18 03:57:34;;;;;;;36.58;26.80;;;;;;;;;;143738;628;46010;-56
2022/01/18 04:00:01;;;;;;;31.98;25.55;;;;;;;;;;143740;574;46020;-56
2022/01/18 04:02:28;;;;;;;38.63;27.98;;;;;;;;;;143738;616;46020;-55
2022/01/18 04:04:56;;;;;;;40.45;27.62;;;;;;;;;;143736;594;46022;-56
2022/01/18 04:07:23;;;;;;;40.12;29.05;;;;;;;;;;143736;701;46010;-55
2022/01/18 04:09:53;;;;;;;41.28;30.58;;;;;;;;;;143734;582;46020;-55
2022/01/18 04:12:20;;;;;;;41.42;30.42;;;;;;;;;;143738;577;46020;-55
2022/01/18 04:14:47;;;;;;;44.75;30.12;;;;;;;;;;143738;590;47023;-56
2022/01/18 04:25:54;;;;;;;40.10;30.83;;;;;;;;;;143742;620;46020;-56
2022/01/18 04:28:42;;;;;;;40.53;28.95;;;;;;;;;;143725;566;46918;-55
2022/01/18 04:31:10;;;;;;;39.78;28.17;;;;;;;;;;143739;587;46020;-56
2022/01/18 04:33:38;;;;;;;42.33;28.77;;;;;;;;;;143738;659;46020;-55
2022/01/18 04:36:09;;;;;;;37.95;27.80;;;;;;;;;;143733;571;46022;-55
2022/01/18 04:38:37;;;;;;;37.70;26.77;;;;;;;;;;143737;594;46010;-56
2022/01/18 04:41:11;;;;;;;35.75;25.10;;;;;;;;;;143740;571;46020;-56
2022/01/18 04:44:04;;;;;;;34.70;24.85;;;;;;;;;;143742;633;46021;-55
2022/01/18 04:49:16;;;;;;;38.40;27.52;;;;;;;;;;143737;578;46020;-56
2022/01/18 04:51:44;;;;;;;29.50;21.30;;;;;;;;;;143737;567;46020;-54
2022/01/18 04:54:12;;;;;;;33.97;24.98;;;;;;;;;;143738;582;46029;-56
2022/01/18 04:59:25;;;;;;;33.88;23.00;;;;;;;;;;143740;597;45918;-56
2022/01/18 05:01:52;;;;;;;32.03;22.55;;;;;;;;;;143735;575;46020;-54
2022/01/18 05:04:19;;;;;;;34.80;26.70;;;;;;;;;;143740;582;46020;-55
2022/01/18 05:06:46;;;;;;;35.13;26.65;;;;;;;;;;143737;582;46043;-55
2022/01/18 05:09:13;;;;;;;34.45;24.80;;;;;;;;;;143737;564;46010;-56
2022/01/18 05:12:05;;;;;;;36.20;26.08;;;;;;;;;;143739;570;46020;-55
2022/01/18 05:14:35;;;;;;;34.25;25.02;;;;;;;;;;143726;632;46021;-56
2022/01/18 05:17:39;;;;;;;38.83;28.23;;;;;;;;;;143738;681;46043;-55
2022/01/18 05:22:59;;;;;;;41.88;30.17;;;;;;;;;;143737;594;46021;-56
2022/01/18 05:25:26;;;;;;;66.40;34.00;;;;;;;;;;143737;656;46020;-56
2022/01/18 05:27:53;;;;;;;52.35;38.30;;;;;;;;;;143733;608;46046;-56
2022/01/18 05:30:20;;;;;;;58.90;41.70;;;;;;;;;;143737;764;46010;-56
2022/01/18 05:32:47;;;;;;;62.53;45.40;;;;;;;;;;143740;575;46020;-55
2022/01/18 05:35:15;;;;;;;66.60;43.87;;;;;;;;;;143741;618;46021;-55
2022/01/18 05:37:42;;;;;;;63.03;44.55;;;;;;;;;;143739;571;46052;-55
2022/01/18 05:40:09;;;;;;;57.25;40.47;;;;;;;;;;143738;653;46012;-55
2022/01/18 05:42:36;;;;;;;55.65;37.75;;;;;;;;;;143741;605;46020;-55
2022/01/18 05:45:03;;;;;;;48.90;34.72;;;;;;;;;;143740;604;46021;-54
2022/01/18 05:47:30;;;;;;;47.47;32.90;;;;;;;;;;143737;649;46022;-55
2022/01/18 05:50:00;;;;;;;56.47;35.88;;;;;;;;;;143738;601;46013;-55
2022/01/18 05:52:27;;;;;;;48.78;34.72;;;;;;;;;;143742;569;46021;-55
2022/01/18 05:54:57;;;;;;;43.67;32.40;;;;;;;;;;143737;587;46020;-55
2022/01/18 05:57:24;;;;;;;47.58;34.38;;;;;;;;;;143737;576;46022;-56
2022/01/18 05:59:53;;;;;;;53.05;34.13;;;;;;;;;;143737;619;46012;-55
2022/01/18 06:08:02;;;;;;;54.58;39.00;;;;;;;;;;143738;773;46023;-55
2022/01/18 06:10:30;;;;;;;63.75;42.42;;;;;;;;;;143738;569;46012;-55
2022/01/18 06:12:57;;;;;;;66.00;36.20;;;;;;;;;;143737;631;46020;-56
2022/01/18 06:15:24;;;;;;;44.13;28.08;;;;;;;;;;143741;577;46021;-55
2022/01/18 06:17:51;;;;;;;51.88;32.10;;;;;;;;;;143731;588;47022;-55
2022/01/18 06:20:18;;;;;;;30.90;19.20;;;;;;;;;;143736;573;46013;-56
2022/01/18 06:22:45;;;;;;;15.85;10.65;;;;;;;;;;143738;579;46021;-55
2022/01/18 06:25:15;;;;;;;17.92;8.88;;;;;;;;;;143740;696;46020;-56
2022/01/18 06:27:42;;;;;;;13.90;8.88;;;;;;;;;;143741;595;46022;-55
2022/01/18 06:30:10;;;;;;;17.15;11.10;;;;;;;;;;143739;564;46012;-55
2022/01/18 06:32:41;;;;;;;13.95;8.05;;;;;;;;;;143743;592;46020;-56
2022/01/18 06:35:09;;;;;;;16.92;8.23;;;;;;;;;;143742;760;46020;-55
2022/01/18 06:37:36;;;;;;;11.60;8.02;;;;;;;;;;143741;579;46023;-55
2022/01/18 06:40:04;;;;;;;15.75;9.77;;;;;;;;;;143739;596;46020;-56
2022/01/18 06:42:31;;;;;;;13.07;7.70;;;;;;;;;;143736;567;46020;-54
2022/01/18 06:44:59;;;;;;;11.88;8.18;;;;;;;;;;143741;569;46021;-55
2022/01/18 06:47:27;;;;;;;11.90;7.25;;;;;;;;;;143741;590;46022;-56
2022/01/18 06:49:54;;;;;;;17.20;9.65;;;;;;;;;;143740;566;46013;-55
2022/01/18 06:52:21;;;;;;;12.30;7.35;;;;;;;;;;143741;589;46021;-55
2022/01/18 06:54:50;;;;;;;12.60;6.68;;;;;;;;;;143743;650;46020;-56
2022/01/18 06:57:20;;;;;;;10.55;6.07;;;;;;;;;;143741;567;46022;-55
2022/01/18 06:59:47;;;;;;;13.18;6.43;;;;;;;;;;143740;578;46012;-55
2022/01/18 07:02:14;;;;;;;18.00;6.37;;;;;;;;;;143740;569;46020;-55
2022/01/18 07:04:41;;;;;;;10.45;6.53;;;;;;;;;;143742;562;46020;-55
2022/01/18 07:07:08;;;;;;;9.40;5.80;;;;;;;;;;143734;603;47023;-55
2022/01/18 07:09:35;;;;;;;9.23;5.20;;;;;;;;;;143741;564;46012;-55
2022/01/18 07:12:08;;;;;;;8.23;5.47;;;;;;;;;;143741;612;46020;-54
2022/01/18 07:14:38;;;;;;;14.80;5.60;;;;;;;;;;143742;608;46021;-55
2022/01/18 07:17:06;;;;;;;8.65;5.00;;;;;;;;;;143740;576;47020;-54
2022/01/18 07:19:33;;;;;;;10.82;4.70;;;;;;;;;;143741;651;46013;-54
2022/01/18 07:22:00;;;;;;;9.13;4.97;;;;;;;;;;143742;600;46021;-55
2022/01/18 07:27:26;;;;;;;8.95;4.35;;;;;;;;;;143743;603;46022;-54
2022/01/18 07:29:53;;;;;;;12.55;5.78;;;;;;;;;;143740;573;46012;-54
2022/01/18 07:32:23;;;;;;;7.22;4.10;;;;;;;;;;143735;582;46020;-55
2022/01/18 07:34:54;;;;;;;9.00;4.45;;;;;;;;;;143742;664;46021;-55
2022/01/18 07:37:22;;;;;;;7.78;4.70;;;;;;;;;;143743;580;46023;-54
2022/01/18 07:39:51;;;;;;;7.30;4.35;;;;;;;;;;143739;569;46022;-54
2022/01/18 07:42:23;;;;;;;8.63;4.03;;;;;;;;;;143742;580;46020;-55
2022/01/18 07:44:53;;;;;;;8.32;4.00;;;;;;;;;;143742;627;46021;-55
2022/01/18 07:47:20;;;;;;;8.05;3.85;;;;;;;;;;143740;576;49020;-54
2022/01/18 07:49:47;;;;;;;7.07;3.58;;;;;;;;;;143740;603;46012;-55
2022/01/18 07:52:14;;;;;;;11.32;3.72;;;;;;;;;;143742;617;46021;-53
2022/01/18 07:54:41;;;;;;;6.15;4.18;;;;;;;;;;143743;570;46020;-53
2022/01/18 07:57:08;;;;;;;6.32;3.83;;;;;;;;;;143735;654;46021;-53
2022/01/18 07:59:35;;;;;;;5.60;3.75;;;;;;;;;;143734;645;46020;-53
2022/01/18 08:02:02;;;;;;;9.30;4.57;;;;;;;;;;143740;576;46020;-54
2022/01/18 08:04:29;;;;;;;6.35;3.47;;;;;;;;;;143740;612;46021;-53
2022/01/18 08:06:57;;;;;;;10.35;3.42;;;;;;;;;;143741;568;46034;-54
2022/01/18 08:09:24;;;;;;;5.60;3.70;;;;;;;;;;143741;587;46020;-54
2022/01/18 08:11:52;;;;;;;6.75;3.90;;;;;;;;;;143741;571;46020;-54
2022/01/18 08:14:19;;;;;;;7.82;3.70;;;;;;;;;;143744;589;46021;-54
2022/01/18 08:19:35;;;;;;;9.27;4.47;;;;;;;;;;143742;576;45917;-54
2022/01/18 08:22:03;;;;;;;8.82;4.35;;;;;;;;;;143735;566;46021;-54
2022/01/18 08:24:30;;;;;;;8.23;4.05;;;;;;;;;;143741;602;46029;-54
2022/01/18 08:26:57;;;;;;;5.32;3.60;;;;;;;;;;143741;571;46044;-53
2022/01/18 08:29:24;;;;;;;6.12;4.10;;;;;;;;;;143741;585;46012;-54
2022/01/18 08:31:51;;;;;;;8.02;3.95;;;;;;;;;;143739;601;46020;-54
2022/01/18 08:34:18;;;;;;;7.72;3.72;;;;;;;;;;143742;577;46021;-55
2022/01/18 08:36:45;;;;;;;5.80;3.80;;;;;;;;;;143743;620;46023;-53
2022/01/18 08:39:12;;;;;;;10.45;4.62;;;;;;;;;;143740;572;46012;-54
2022/01/18 08:41:40;;;;;;;10.85;4.00;;;;;;;;;;143740;564;46020;-54
2022/01/18 08:44:07;;;;;;;7.72;4.10;;;;;;;;;;143741;639;46021;-54
2022/01/18 08:46:34;;;;;;;8.88;3.80;;;;;;;;;;143735;589;46051;-56
2022/01/18 08:49:01;;;;;;;7.70;3.67;;;;;;;;;;143740;583;46021;-55
2022/01/18 08:51:28;;;;;;;9.18;3.67;;;;;;;;;;143743;583;46021;-53
2022/01/18 08:53:55;;;;;;;9.52;4.22;;;;;;;;;;143743;587;46020;-53
2022/01/18 08:56:23;;;;;;;5.75;3.55;;;;;;;;;;143742;639;46051;-53
2022/01/18 08:58:50;;;;;;;7.00;3.67;;;;;;;;;;143740;576;46013;-53
2022/01/18 09:01:18;;;;;;;7.05;3.80;;;;;;;;;;143741;585;46020;-53
2022/01/18 09:03:45;;;;;;;8.73;3.70;;;;;;;;;;143741;745;47020;-53
2022/01/18 09:06:16;;;;;;;8.63;4.25;;;;;;;;;;143741;573;46036;-53
2022/01/18 09:08:44;;;;;;;5.15;3.40;;;;;;;;;;143740;573;46012;-53
2022/01/18 09:11:11;;;;;;;7.25;3.78;;;;;;;;;;143735;608;46020;-55
2022/01/18 09:13:39;;;;;;;6.53;4.10;;;;;;;;;;143741;614;46021;-53
2022/01/18 09:16:09;;;;;;;6.62;3.22;;;;;;;;;;143739;575;47020;-53
2022/01/18 09:18:37;;;;;;;6.57;3.10;;;;;;;;;;143739;591;47012;-54
2022/01/18 09:21:04;;;;;;;8.27;3.15;;;;;;;;;;143743;622;46021;-53
2022/01/18 09:23:32;;;;;;;7.20;3.10;;;;;;;;;;143741;575;46020;-54
2022/01/18 09:25:59;;;;;;;6.72;3.22;;;;;;;;;;143739;564;47022;-53
2022/01/18 09:28:26;;;;;;;6.87;3.50;;;;;;;;;;143741;607;46012;-53
2022/01/18 09:30:53;;;;;;;6.60;3.10;;;;;;;;;;143742;579;46020;-54
2022/01/18 09:33:20;;;;;;;7.05;3.60;;;;;;;;;;143743;596;46021;-53
2022/01/18 09:35:47;;;;;;;9.25;3.10;;;;;;;;;;143734;661;46023;-53
2022/01/18 09:38:17;;;;;;;13.98;3.35;;;;;;;;;;143741;565;46012;-52
2022/01/18 09:40:45;;;;;;;8.27;3.33;;;;;;;;;;143743;585;46020;-52
2022/01/18 09:43:14;;;;;;;7.65;3.80;;;;;;;;;;143742;564;46028;-53
2022/01/18 09:45:44;;;;;;;8.25;4.47;;;;;;;;;;143742;579;46022;-53
2022/01/18 09:48:13;;;;;;;11.88;3.33;;;;;;;;;;143741;581;46013;-53
2022/01/18 09:50:45;;;;;;;7.43;3.25;;;;;;;;;;143741;646;46021;-53
2022/01/18 09:53:12;;;;;;;5.10;2.65;;;;;;;;;;143741;569;46020;-54
2022/01/18 09:55:41;;;;;;;7.22;3.28;;;;;;;;;;143741;605;46022;-55
2022/01/18 09:58:09;;;;;;;7.00;3.30;;;;;;;;;;143738;604;46917;-53
2022/01/18 10:00:41;;;;;;;4.97;2.95;;;;;;;;;;143736;664;46020;-54
2022/01/18 10:03:35;;;;;;;6.72;3.70;;;;;;;;;;143737;580;46020;-56
2022/01/18 10:06:03;;;;;;;6.30;3.60;;;;;;;;;;143740;607;46023;-54
2022/01/18 10:08:30;;;;;;;9.65;3.28;;;;;;;;;;143741;573;46020;-54
2022/01/18 10:11:00;;;;;;;8.48;3.60;;;;;;;;;;143741;578;46020;-54
2022/01/18 10:13:30;;;;;;;7.07;3.05;;;;;;;;;;143740;584;46021;-53
2022/01/18 10:16:23;;;;;;;5.22;3.30;;;;;;;;;;143740;613;47048;-53
2022/01/18 10:18:55;;;;;;;6.18;3.20;;;;;;;;;;143740;567;46013;-54
2022/01/18 10:21:31;;;;;;;8.27;3.08;;;;;;;;;;143744;590;46021;-54
2022/01/18 10:24:20;;;;;;;9.48;3.12;;;;;;;;;;143743;601;46020;-54
2022/01/18 10:26:48;;;;;;;8.50;3.40;;;;;;;;;;143734;584;47022;-53
2022/01/18 10:29:17;;;;;;;7.57;3.03;;;;;;;;;;143740;579;46012;-55
2022/01/18 10:37:22;;;;;;;5.35;2.97;;;;;;;;;;143740;588;47020;-53
2022/01/18 10:39:58;;;;;;;6.62;2.90;;;;;;;;;;143741;587;46012;-54
2022/01/18 10:43:05;;;;;;;5.03;2.65;;;;;;;;;;143743;585;46021;-55
2022/01/18 10:45:35;;;;;;;10.20;3.60;;;;;;;;;;143742;590;46020;-54
2022/01/18 10:48:13;;;;;;;5.30;2.92;;;;;;;;;;143741;620;46022;-55
2022/01/18 10:50:42;;;;;;;6.20;2.80;;;;;;;;;;143740;591;46012;-55
2022/01/18 10:53:18;;;;;;;5.07;2.55;;;;;;;;;;143737;626;46020;-54
2022/01/18 10:55:47;;;;;;;7.95;2.87;;;;;;;;;;143743;589;46020;-56
2022/01/18 10:58:16;;;;;;;7.43;3.12;;;;;;;;;;143743;634;46023;-54
2022/01/18 11:00:44;;;;;;;5.78;2.58;;;;;;;;;;143740;662;46012;-54
2022/01/18 11:03:11;;;;;;;13.65;3.17;;;;;;;;;;143743;583;46020;-55
2022/01/18 11:05:43;;;;;;;4.80;3.28;;;;;;;;;;143741;564;46021;-55
2022/01/18 11:08:12;;;;;;;6.87;3.03;;;;;;;;;;143741;572;46022;-54
2022/01/18 11:10:41;;;;;;;6.05;2.95;;;;;;;;;;143738;638;47010;-54
2022/01/18 11:13:20;;;;;;;8.20;2.37;;;;;;;;;;143742;565;46021;-54
2022/01/18 11:15:50;;;;;;;7.62;3.00;;;;;;;;;;143741;603;46020;-54
2022/01/18 11:18:29;;;;;;;4.05;2.58;;;;;;;;;;143736;569;46022;-54
2022/01/18 11:21:02;;;;;;;5.03;2.55;;;;;;;;;;143741;582;46010;-54
2022/01/18 11:23:33;;;;;;;7.15;3.28;;;;;;;;;;143740;584;46020;-54
2022/01/18 11:26:00;;;;;;;2.60;2.20;;;;;;;;;;143741;574;46020;-54
2022/01/18 11:28:29;;;;;;;5.45;2.67;;;;;;;;;;143741;622;47010;-54
2022/01/18 11:30:58;;;;;;;6.68;2.85;;;;;;;;;;143741;618;46010;-55
2022/01/18 11:33:29;;;;;;;4.30;2.50;;;;;;;;;;143741;607;46020;-54
2022/01/18 11:36:08;;;;;;;6.45;2.37;;;;;;;;;;143743;584;46021;-54
2022/01/18 11:39:01;;;;;;;9.20;3.92;;;;;;;;;;143743;584;46020;-55
2022/01/18 11:41:31;;;;;;;5.55;2.65;;;;;;;;;;143739;595;46010;-55
2022/01/18 11:44:10;;;;;;;6.85;2.92;;;;;;;;;;143734;579;46020;-54
2022/01/18 11:46:40;;;;;;;5.72;2.65;;;;;;;;;;143739;614;46020;-55
2022/01/18 11:49:21;;;;;;;7.62;2.75;;;;;;;;;;143738;601;47022;-54
2022/01/18 11:52:00;;;;;;;6.30;2.60;;;;;;;;;;143737;578;46010;-55
2022/01/18 11:54:58;;;;;;;4.43;2.70;;;;;;;;;;143741;592;46020;-55
2022/01/18 11:57:35;;;;;;;7.78;4.43;;;;;;;;;;143733;605;46021;-55
2022/01/18 12:00:28;;;;;;;14.20;7.97;;;;;;;;;;143740;564;46052;-54
2022/01/18 12:03:16;;;;;;;6.15;2.80;;;;;;;;;;143738;614;47011;-54
2022/01/18 12:05:46;;;;;;;21.35;12.50;;;;;;;;;;143741;583;46023;-54
2022/01/18 12:08:46;;;;;;;4.40;2.60;;;;;;;;;;143740;598;46020;-54
2022/01/18 12:11:36;;;;;;;6.82;2.42;;;;;;;;;;143729;747;47022;-55
2022/01/18 12:14:04;;;;;;;7.80;3.08;;;;;;;;;;143737;585;46010;-54
2022/01/18 12:16:31;;;;;;;4.37;2.35;;;;;;;;;;143740;657;46020;-54
2022/01/18 12:19:02;;;;;;;6.70;3.12;;;;;;;;;;143742;577;46021;-54
2022/01/18 12:21:31;;;;;;;5.22;2.80;;;;;;;;;;143736;588;47022;-55
2022/01/18 12:24:13;;;;;;;6.28;2.50;;;;;;;;;;143737;584;46010;-55
2022/01/18 12:26:45;;;;;;;10.48;4.82;;;;;;;;;;143740;590;46020;-54
2022/01/18 12:32:40;;;;;;;7.40;2.67;;;;;;;;;;143741;563;46024;-55
2022/01/18 12:35:22;;;;;;;26.95;13.75;;;;;;;;;;143727;605;46010;-54
2022/01/18 12:37:49;;;;;;;9.85;4.45;;;;;;;;;;143733;609;46020;-54
2022/01/18 12:40:25;;;;;;;3.92;2.28;;;;;;;;;;143737;576;46021;-55
2022/01/18 12:45:51;;;;;;;3.50;2.40;;;;;;;;;;143740;585;46020;-55
2022/01/18 12:48:21;;;;;;;6.45;2.92;;;;;;;;;;143740;606;46020;-54
2022/01/18 12:50:53;;;;;;;3.90;2.28;;;;;;;;;;143738;642;46021;-55
2022/01/18 12:53:27;;;;;;;6.60;2.70;;;;;;;;;;143739;564;46022;-54
2022/01/18 12:55:57;;;;;;;3.20;1.73;;;;;;;;;;143739;571;46011;-54
2022/01/18 12:58:31;;;;;;;6.28;2.60;;;;;;;;;;143741;658;46021;-55
2022/01/18 13:01:01;;;;;;;6.13;2.17;;;;;;;;;;143741;577;46020;-55
2022/01/18 13:03:43;;;;;;;3.12;1.92;;;;;;;;;;143732;659;46050;-54
2022/01/18 13:06:21;;;;;;;6.25;2.55;;;;;;;;;;143737;569;46020;-55
2022/01/18 13:08:53;;;;;;;4.37;2.33;;;;;;;;;;143739;609;46020;-54
2022/01/18 13:11:25;;;;;;;6.10;2.87;;;;;;;;;;143738;647;46021;-55
2022/01/18 13:14:01;;;;;;;10.38;2.22;;;;;;;;;;143739;586;47020;-54
2022/01/18 13:25:20;;;;;;;10.93;3.17;;;;;;;;;;143738;596;46022;-54
2022/01/18 13:27:50;;;;;;;3.47;2.33;;;;;;;;;;143739;575;46010;-55
2022/01/18 13:30:25;;;;;;;4.25;2.55;;;;;;;;;;143731;639;46020;-55
2022/01/18 13:32:53;;;;;;;3.87;2.00;;;;;;;;;;143742;675;46021;-54
2022/01/18 13:35:24;;;;;;;5.53;2.60;;;;;;;;;;143740;579;46043;-54
2022/01/18 13:37:51;;;;;;;4.57;2.80;;;;;;;;;;143738;596;46020;-55
2022/01/18 13:40:20;;;;;;;2.97;2.08;;;;;;;;;;143742;572;46022;-54
2022/01/18 13:42:50;;;;;;;7.25;4.97;;;;;;;;;;143742;591;46019;-55
2022/01/18 13:45:35;;;;;;;5.47;2.75;;;;;;;;;;143740;574;46022;-55
2022/01/18 13:48:10;;;;;;;5.60;2.70;;;;;;;;;;143739;586;46010;-55
2022/01/18 13:50:50;;;;;;;3.87;2.55;;;;;;;;;;143739;575;46021;-55
2022/01/18 13:53:28;;;;;;;3.22;1.77;;;;;;;;;;143740;581;46020;-54
2022/01/18 13:56:17;;;;;;;4.50;2.20;;;;;;;;;;143733;613;47021;-54
2022/01/18 13:58:51;;;;;;;4.68;2.65;;;;;;;;;;143737;657;46010;-54
2022/01/18 14:01:24;;;;;;;6.68;2.60;;;;;;;;;;143740;576;46020;-55
2022/01/18 14:03:54;;;;;;;8.20;2.90;;;;;;;;;;143739;669;46021;-56
2022/01/18 14:06:32;;;;;;;6.95;2.80;;;;;;;;;;143739;601;47022;-55
2022/01/18 14:08:59;;;;;;;6.07;2.60;;;;;;;;;;143738;611;46023;-54
2022/01/18 14:11:33;;;;;;;3.87;2.35;;;;;;;;;;143740;570;46021;-55
2022/01/18 14:14:02;;;;;;;4.62;2.25;;;;;;;;;;143740;662;46020;-54
2022/01/18 14:16:33;;;;;;;6.30;2.20;;;;;;;;;;143740;566;46022;-54
2022/01/18 14:19:05;;;;;;;4.97;2.60;;;;;;;;;;143738;572;46029;-54
2022/01/18 14:21:46;;;;;;;3.92;2.05;;;;;;;;;;143734;668;46020;-54
2022/01/18 14:24:16;;;;;;;6.03;2.92;;;;;;;;;;143739;610;46020;-54
2022/01/18 14:27:13;;;;;;;5.05;3.12;;;;;;;;;;143739;574;47020;-55
2022/01/18 14:30:06;;;;;;;4.85;2.67;;;;;;;;;;143740;641;46010;-54
2022/01/18 14:32:43;;;;;;;4.97;2.50;;;;;;;;;;143739;636;46022;-54
2022/01/18 14:35:18;;;;;;;6.68;3.15;;;;;;;;;;143738;623;47020;-55
2022/01/18 14:37:54;;;;;;;8.45;2.90;;;;;;;;;;143741;658;46022;-54
2022/01/18 14:40:24;;;;;;;6.62;2.42;;;;;;;;;;143738;592;46010;-54
2022/01/18 14:43:00;;;;;;;6.32;2.30;;;;;;;;;;143739;588;46020;-54
2022/01/18 14:45:52;;;;;;;4.37;2.33;;;;;;;;;;143742;566;46020;-54
2022/01/18 14:48:19;;;;;;;5.70;3.05;;;;;;;;;;143734;566;46021;-54
2022/01/18 14:50:47;;;;;;;4.28;2.42;;;;;;;;;;143739;589;46010;-54
2022/01/18 14:53:14;;;;;;;4.87;2.87;;;;;;;;;;143741;577;46020;-54
2022/01/18 14:55:41;;;;;;;7.00;2.42;;;;;;;;;;143741;585;46021;-54
2022/01/18 14:58:08;;;;;;;5.55;2.83;;;;;;;;;;143740;645;46022;-53
2022/01/18 15:00:37;;;;;;;5.07;3.28;;;;;;;;;;143739;586;46010;-54
2022/01/18 15:03:05;;;;;;;3.95;2.58;;;;;;;;;;143739;677;46021;-54
2022/01/18 15:05:32;;;;;;;6.32;2.65;;;;;;;;;;143738;630;46027;-54
2022/01/18 15:08:00;;;;;;;6.25;3.28;;;;;;;;;;143741;626;46022;-54
2022/01/18 15:10:27;;;;;;;4.82;3.00;;;;;;;;;;143739;595;46010;-54
2022/01/18 15:12:55;;;;;;;5.15;2.70;;;;;;;;;;143735;615;46020;-54
2022/01/18 15:15:24;;;;;;;4.60;2.55;;;;;;;;;;143740;584;46020;-55
2022/01/18 15:17:51;;;;;;;6.45;2.90;;;;;;;;;;143739;572;47022;-54
2022/01/18 15:20:20;;;;;;;4.50;2.47;;;;;;;;;;143738;609;46020;-59
2022/01/18 15:22:48;;;;;;;9.40;3.15;;;;;;;;;;143742;564;46020;-60
2022/01/18 15:25:15;;;;;;;8.32;2.62;;;;;;;;;;143740;647;46021;-59
2022/01/18 15:27:42;;;;;;;5.35;2.67;;;;;;;;;;143740;589;46023;-60
2022/01/18 15:30:13;;;;;;;4.57;2.60;;;;;;;;;;143739;604;46020;-59
2022/01/18 15:32:42;;;;;;;7.68;2.87;;;;;;;;;;143740;622;46020;-60
2022/01/18 15:35:10;;;;;;;6.18;2.70;;;;;;;;;;143741;666;46020;-59
2022/01/18 15:37:39;;;;;;;5.37;2.70;;;;;;;;;;143734;592;46022;-60
2022/01/18 15:40:07;;;;;;;6.03;2.55;;;;;;;;;;143737;590;46021;-59
2022/01/18 15:42:34;;;;;;;5.25;2.72;;;;;;;;;;143742;594;46020;-59
2022/01/18 15:45:03;;;;;;;6.05;2.85;;;;;;;;;;143739;614;46020;-60
2022/01/18 15:47:30;;;;;;;5.55;3.12;;;;;;;;;;143740;582;46041;-59
2022/01/18 15:49:57;;;;;;;6.28;3.10;;;;;;;;;;143737;610;46010;-60
2022/01/18 15:52:25;;;;;;;4.97;2.58;;;;;;;;;;143739;570;46020;-59
2022/01/18 15:54:53;;;;;;;7.78;2.37;;;;;;;;;;143740;606;46021;-60
2022/01/18 15:57:20;;;;;;;7.82;2.72;;;;;;;;;;143739;603;47020;-60
2022/01/18 15:59:48;;;;;;;7.70;3.15;;;;;;;;;;143738;619;46020;-59
2022/01/18 16:02:15;;;;;;;3.15;2.20;;;;;;;;;;143735;586;46020;-60
2022/01/18 16:04:42;;;;;;;4.32;2.33;;;;;;;;;;143741;576;47020;-60
2022/01/18 16:07:10;;;;;;;7.47;3.67;;;;;;;;;;143740;604;46022;-60
2022/01/18 16:09:37;;;;;;;6.80;2.90;;;;;;;;;;143740;627;46917;-60
2022/01/18 16:12:05;;;;;;;6.47;3.15;;;;;;;;;;143738;579;46021;-59
2022/01/18 16:14:32;;;;;;;4.30;2.03;;;;;;;;;;143740;570;46020;-59
2022/01/18 16:16:59;;;;;;;3.90;2.58;;;;;;;;;;143738;674;47022;-60
2022/01/18 16:19:27;;;;;;;4.87;2.58;;;;;;;;;;143739;710;46010;-60
2022/01/18 16:21:56;;;;;;;7.35;3.10;;;;;;;;;;143741;587;46020;-59